Justiceburg, Texas
Current Conditions -  °F | °C
As of 2:15 PM on Friday 24 Oct 2014 (Local Time) from KSNK Reporting Station
Clear Clear  
Wind Chill: 77°   Ceiling: Unl
Heat Index: 79°   Visibility: 10mi
Dew Point: 64°   Wind: 8mph
Humidity: 63%   Direction: 200°SSW
Pressure: 30.15"   Gusts: NA
Location:  33.04°N, 101.2°W
Report Text: KSNK 241915Z AUTO 20007KT 10SM CLR 25/18 A3015 RMK AO2 T02520177
Loading
Personal Weather Stations






























Interactive Weather Map
Tropical Storm Tracking
New forecast layout! Learn more

10-Day Weather Forecast

Advertisements
Track Severe Weather on mobile